Time;durP1;ratioP1;P1;durP2;ratioP2;P2;SDS_P1;SDS_P2;PMS_P1;PMS_P2;Temp;Humidity;BMP_temperature;BMP_pressure;BME280_temperature;BME280_humidity;BME280_pressure;Samples;Min_cycle;Max_cycle;Signal;HPM_P1;HPM_P2
2022/04/28 00:01:18;;;;;;;16.88;11.07;;;10.40;99.90;;;;;;5066697;28;20232;-73
2022/04/28 00:04:07;;;;;;;19.88;11.82;;;10.40;99.90;;;;;;5084526;28;20369;-72
2022/04/28 00:06:56;;;;;;;20.02;10.88;;;10.40;99.90;;;;;;5075851;28;20945;-74
2022/04/28 00:09:44;;;;;;;21.02;10.93;;;10.30;99.90;;;;;;5075595;28;20303;-73
2022/04/28 00:12:33;;;;;;;20.70;10.98;;;10.30;99.90;;;;;;5072059;28;20253;-71
2022/04/28 00:15:22;;;;;;;17.27;10.70;;;10.10;99.90;;;;;;5063822;28;20227;-72
2022/04/28 00:18:12;;;;;;;16.25;9.98;;;10.10;99.90;;;;;;5102398;27;20262;-72
2022/04/28 00:21:00;;;;;;;17.23;10.00;;;10.10;99.90;;;;;;5068898;28;20223;-73
2022/04/28 00:23:49;;;;;;;15.77;10.27;;;10.20;99.90;;;;;;5048954;28;20224;-72
2022/04/28 00:26:42;;;;;;;14.55;9.95;;;10.20;99.90;;;;;;5049586;28;20218;-73
2022/04/28 00:29:31;;;;;;;15.63;9.95;;;10.20;99.90;;;;;;5035035;28;20225;-71
2022/04/28 00:32:20;;;;;;;17.30;9.68;;;10.00;99.90;;;;;;5046061;28;20221;-73
2022/04/28 00:35:10;;;;;;;18.45;10.52;;;9.70;99.90;;;;;;5039675;28;20237;-72
2022/04/28 00:37:59;;;;;;;17.10;10.33;;;9.70;99.90;;;;;;5065811;28;20268;-74
2022/04/28 00:40:48;;;;;;;16.38;9.60;;;9.80;99.90;;;;;;5050705;28;20220;-72
2022/04/28 00:43:49;;;;;;;16.10;10.00;;;9.70;99.90;;;;;;5037029;28;20231;-72
2022/04/28 00:46:38;;;;;;;17.33;10.00;;;9.60;99.90;;;;;;5047781;28;20256;-72
2022/04/28 00:52:35;;;;;;;15.25;9.23;;;9.60;99.90;;;;;;5047251;28;20297;-73
2022/04/28 00:55:24;;;;;;;15.13;9.82;;;9.70;99.90;;;;;;5066973;28;20306;-73
2022/04/28 00:58:13;;;;;;;16.23;9.27;;;9.50;99.90;;;;;;5060802;28;20745;-74
2022/04/28 01:01:04;;;;;;;15.20;9.17;;;9.60;99.90;;;;;;5049604;28;20248;-73
2022/04/28 01:03:52;;;;;;;13.57;9.30;;;9.50;99.90;;;;;;5040435;28;20251;-72
2022/04/28 01:06:42;;;;;;;16.27;8.47;;;9.50;99.90;;;;;;5054819;28;20227;-73
2022/04/28 01:09:36;;;;;;;14.10;9.33;;;9.50;99.90;;;;;;5033954;28;20229;-72
2022/04/28 01:12:29;;;;;;;17.00;10.00;;;9.30;99.90;;;;;;5036607;28;20786;-74
2022/04/28 01:15:18;;;;;;;16.23;9.33;;;9.30;99.90;;;;;;5041960;28;20820;-73
2022/04/28 01:18:06;;;;;;;15.50;9.55;;;9.40;99.90;;;;;;5060851;28;20301;-72
2022/04/28 01:20:56;;;;;;;15.13;10.18;;;9.40;99.90;;;;;;5060603;28;20224;-73
2022/04/28 01:23:46;;;;;;;14.63;9.47;;;9.20;99.90;;;;;;5086098;28;20853;-72
2022/04/28 01:26:38;;;;;;;12.33;9.30;;;9.10;99.90;;;;;;5068933;28;20310;-72
2022/04/28 01:29:27;;;;;;;16.83;9.30;;;9.00;99.90;;;;;;5073977;28;20843;-72
2022/04/28 01:32:15;;;;;;;15.80;9.53;;;9.00;99.90;;;;;;5070063;28;20219;-73
2022/04/28 01:35:06;;;;;;;15.10;9.20;;;9.00;99.90;;;;;;5071390;28;20275;-73
2022/04/28 01:37:55;;;;;;;17.50;9.60;;;9.10;99.90;;;;;;5088050;27;20219;-74
2022/04/28 01:40:46;;;;;;;13.40;9.33;;;9.10;99.90;;;;;;5073474;28;20227;-74
2022/04/28 01:43:35;;;;;;;17.70;9.93;;;8.90;99.90;;;;;;5087916;27;20220;-74
2022/04/28 01:46:23;;;;;;;14.37;9.30;;;8.80;99.90;;;;;;5067370;28;20341;-73
2022/04/28 01:49:19;;;;;;;17.03;9.40;;;8.80;99.90;;;;;;5071086;28;21012;-74
2022/04/28 01:56:01;;;;;;;14.80;9.07;;;8.80;99.90;;;;;;5066939;28;20255;-73
2022/04/28 01:59:10;;;;;;;12.27;8.57;;;8.70;99.90;;;;;;5068330;28;20962;-73
2022/04/28 02:02:15;;;;;;;15.13;9.03;;;8.80;99.90;;;;;;5071411;28;20219;-73
2022/04/28 02:05:04;;;;;;;19.00;8.87;;;8.70;99.90;;;;;;5070784;28;20218;-75
2022/04/28 02:07:53;;;;;;;17.63;10.07;;;8.60;99.90;;;;;;5078234;28;20261;-74
2022/04/28 02:10:42;;;;;;;16.37;9.90;;;8.60;99.90;;;;;;5077101;28;20220;-73
2022/04/28 02:13:46;;;;;;;13.97;9.60;;;8.50;99.90;;;;;;5072797;28;20313;-72
2022/04/28 02:17:04;;;;;;;17.40;9.60;;;8.50;99.90;;;;;;5070615;28;20675;-73
2022/04/28 02:19:56;;;;;;;14.63;9.13;;;8.60;99.90;;;;;;5071353;28;20213;-73
2022/04/28 02:22:44;;;;;;;13.67;8.83;;;8.60;99.90;;;;;;5070988;28;20249;-73
2022/04/28 02:25:33;;;;;;;14.43;9.07;;;8.80;99.90;;;;;;5071023;28;20253;-72
2022/04/28 02:28:23;;;;;;;17.83;9.27;;;9.10;99.90;;;;;;5075214;28;20229;-73
2022/04/28 02:31:13;;;;;;;13.97;8.63;;;9.00;99.90;;;;;;5103007;27;20221;-72
2022/04/28 02:34:02;;;;;;;13.30;8.70;;;8.90;99.90;;;;;;5093782;27;20216;-72
2022/04/28 02:37:00;;;;;;;17.63;9.23;;;8.80;99.90;;;;;;5069733;28;20230;-73
2022/04/28 02:39:48;;;;;;;13.03;8.27;;;9.00;99.90;;;;;;5076011;28;20341;-72
2022/04/28 02:42:37;;;;;;;14.33;8.70;;;9.00;99.90;;;;;;5085287;28;20693;-72
2022/04/28 02:45:26;;;;;;;12.63;7.73;;;9.00;99.90;;;;;;5097969;27;20222;-73
2022/04/28 02:48:19;;;;;;;12.73;8.10;;;8.90;99.90;;;;;;5080367;28;20226;-73
2022/04/28 02:51:08;;;;;;;13.53;7.77;;;9.00;99.90;;;;;;5070877;28;20233;-74
2022/04/28 02:53:59;;;;;;;14.50;7.77;;;8.80;99.90;;;;;;5067579;28;20225;-74
2022/04/28 02:56:48;;;;;;;13.07;8.20;;;8.70;99.90;;;;;;5071701;28;20345;-73
2022/04/28 02:59:37;;;;;;;11.23;7.43;;;8.70;99.90;;;;;;5075482;28;20714;-72
2022/04/28 03:02:26;;;;;;;12.20;7.90;;;8.70;99.90;;;;;;5066408;28;20278;-73
2022/04/28 03:05:17;;;;;;;13.00;8.30;;;8.60;99.90;;;;;;5078790;28;20313;-73
2022/04/28 03:11:14;;;;;;;14.63;8.73;;;8.40;99.90;;;;;;5095482;27;20244;-73
2022/04/28 03:14:03;;;;;;;15.93;8.83;;;8.30;99.90;;;;;;5084049;28;20387;-72
2022/04/28 03:16:54;;;;;;;16.43;8.47;;;8.20;99.90;;;;;;5080365;28;20228;-73
2022/04/28 03:19:43;;;;;;;15.70;9.30;;;8.20;99.90;;;;;;5081996;28;20252;-71
2022/04/28 03:22:36;;;;;;;14.37;8.67;;;8.10;99.90;;;;;;5066418;28;20774;-72
2022/04/28 03:25:24;;;;;;;12.93;8.40;;;8.10;99.90;;;;;;5070149;27;20367;-73
2022/04/28 03:28:13;;;;;;;13.03;8.53;;;8.20;99.90;;;;;;5095137;27;20605;-73
2022/04/28 03:31:04;;;;;;;14.30;8.93;;;8.10;99.90;;;;;;5077210;28;20289;-73
2022/04/28 03:34:05;;;;;;;11.57;7.87;;;8.30;99.90;;;;;;5070869;28;20397;-73
2022/04/28 03:36:54;;;;;;;15.10;7.83;;;8.10;99.90;;;;;;5077207;28;20310;-72
2022/04/28 03:39:56;;;;;;;15.20;7.77;;;7.90;99.90;;;;;;5094929;27;20365;-72
2022/04/28 03:42:46;;;;;;;12.30;7.80;;;8.00;99.90;;;;;;5097112;27;20863;-74
2022/04/28 03:45:35;;;;;;;20.30;8.43;;;8.10;99.90;;;;;;5067540;28;20594;-73
2022/04/28 03:48:28;;;;;;;13.30;7.43;;;8.00;99.90;;;;;;5074103;28;20231;-73
2022/04/28 03:51:17;;;;;;;13.07;7.67;;;7.90;99.90;;;;;;5070222;28;20722;-73
2022/04/28 03:54:06;;;;;;;12.93;7.67;;;8.10;99.90;;;;;;5066391;28;20887;-71
2022/04/28 03:56:58;;;;;;;14.50;7.90;;;8.00;99.90;;;;;;5078375;28;20299;-73
2022/04/28 03:59:49;;;;;;;15.83;8.17;;;7.90;99.90;;;;;;5069292;28;20732;-71
2022/04/28 04:02:53;;;;;;;12.70;8.70;;;8.00;99.90;;;;;;5062688;28;20216;-71
2022/04/28 04:05:43;;;;;;;13.70;8.87;;;7.90;99.90;;;;;;5084124;28;20337;-69
2022/04/28 04:08:32;;;;;;;14.77;8.73;;;8.00;99.90;;;;;;5068903;28;20548;-71
2022/04/28 04:11:31;;;;;;;12.50;8.40;;;8.00;99.90;;;;;;5093798;27;20242;-71
2022/04/28 04:14:21;;;;;;;15.20;8.70;;;7.70;99.90;;;;;;5075405;28;20223;-72
2022/04/28 04:17:10;;;;;;;15.10;7.90;;;7.90;99.90;;;;;;5072169;28;20535;-72
2022/04/28 04:19:58;;;;;;;17.07;8.83;;;7.80;99.90;;;;;;5073439;28;20284;-72
2022/04/28 04:22:47;;;;;;;12.50;8.47;;;7.80;99.90;;;;;;5075500;28;20240;-72
2022/04/28 04:25:36;;;;;;;15.60;8.37;;;7.90;99.90;;;;;;5062546;28;20270;-72
2022/04/28 04:28:30;;;;;;;20.27;8.57;;;7.90;99.90;;;;;;5095043;27;20254;-73
2022/04/28 04:35:09;;;;;;;12.33;8.27;;;8.00;99.90;;;;;;5070842;28;20717;-71
2022/04/28 04:38:07;;;;;;;13.27;8.60;;;8.20;99.90;;;;;;5072271;28;20226;-75
2022/04/28 04:40:56;;;;;;;16.87;9.13;;;8.10;99.90;;;;;;5098118;27;20810;-74
2022/04/28 04:43:45;;;;;;;16.87;8.63;;;8.60;99.90;;;;;;5077589;28;20313;-77
2022/04/28 04:46:33;;;;;;;14.13;8.17;;;8.60;99.90;;;;;;5077154;28;20226;-75
2022/04/28 04:50:02;;;;;;;12.53;8.60;;;8.70;99.90;;;;;;4997519;28;20214;-75
2022/04/28 04:53:20;;;;;;;17.03;9.20;;;8.40;99.90;;;;;;4984908;28;20266;-74
2022/04/28 04:56:09;;;;;;;14.10;8.30;;;8.40;99.90;;;;;;5066563;28;20292;-74
2022/04/28 04:58:58;;;;;;;14.47;8.43;;;8.50;99.90;;;;;;5070150;28;20225;-74
2022/04/28 05:01:47;;;;;;;12.80;8.57;;;8.70;99.90;;;;;;5069990;28;20223;-70
2022/04/28 05:04:55;;;;;;;17.77;9.07;;;8.90;99.90;;;;;;5069843;27;20226;-73
2022/04/28 05:08:12;;;;;;;18.87;9.87;;;9.00;99.90;;;;;;5074741;28;20597;-74
2022/04/28 05:11:09;;;;;;;16.70;8.67;;;9.20;99.90;;;;;;5073320;28;20306;-73
2022/04/28 05:14:06;;;;;;;16.97;8.53;;;9.30;99.90;;;;;;5075628;28;20893;-73
2022/04/28 05:16:57;;;;;;;13.70;8.60;;;9.40;99.90;;;;;;5075290;28;20551;-75
2022/04/28 05:20:00;;;;;;;18.90;9.13;;;9.30;99.90;;;;;;5072853;28;20234;-72
2022/04/28 05:23:08;;;;;;;20.17;9.07;;;9.10;99.90;;;;;;5068541;28;20283;-74
2022/04/28 05:26:17;;;;;;;14.53;8.37;;;9.20;99.90;;;;;;5071117;28;20217;-74
2022/04/28 05:29:25;;;;;;;18.17;8.80;;;9.20;99.90;;;;;;5073593;28;20224;-72
2022/04/28 05:32:33;;;;;;;16.20;8.87;;;9.20;99.90;;;;;;5082083;28;20298;-71
2022/04/28 05:35:49;;;;;;;17.53;8.33;;;9.60;99.90;;;;;;5078134;28;20647;-72
2022/04/28 05:38:38;;;;;;;22.97;9.57;;;9.90;99.90;;;;;;5073799;28;20230;-72
2022/04/28 05:41:29;;;;;;;18.40;8.80;;;10.10;99.90;;;;;;5079742;28;20315;-72
2022/04/28 05:47:25;;;;;;;22.95;8.35;;;10.30;99.90;;;;;;5098051;27;20328;-73
2022/04/28 05:50:15;;;;;;;19.35;8.68;;;10.20;99.90;;;;;;5075107;27;20378;-73
2022/04/28 05:53:04;;;;;;;13.82;7.97;;;10.10;99.90;;;;;;5072120;28;20219;-73
2022/04/28 05:55:53;;;;;;;17.38;7.72;;;10.40;99.90;;;;;;5070781;28;20220;-73
2022/04/28 05:58:47;;;;;;;18.80;8.00;;;10.70;99.90;;;;;;5069606;28;20220;-73
2022/04/28 06:02:14;;;;;;;16.02;7.15;;;11.20;99.90;;;;;;5032442;28;20232;-72
2022/04/28 06:05:04;;;;;;;19.25;7.63;;;11.60;99.90;;;;;;5024435;28;20311;-74
2022/04/28 06:07:53;;;;;;;19.38;8.20;;;11.60;99.90;;;;;;5073737;28;20216;-73
2022/04/28 07:18:01;;;;;;;15.80;8.48;;;12.40;99.90;;;;;;4953161;27;1953967;-76
2022/04/28 07:20:50;;;;;;;15.63;8.50;;;12.30;99.90;;;;;;5015725;28;20228;-74
2022/04/28 07:23:39;;;;;;;16.27;8.48;;;12.40;99.90;;;;;;5007239;28;20233;-73
2022/04/28 07:26:30;;;;;;;20.52;9.18;;;12.50;99.90;;;;;;5012459;28;20276;-74
2022/04/28 07:29:19;;;;;;;15.35;8.35;;;12.70;99.90;;;;;;5018014;28;20573;-75
2022/04/28 07:32:34;;;;;;;14.60;8.50;;;12.40;99.90;;;;;;5009201;28;20252;-74
2022/04/28 07:35:39;;;;;;;14.75;8.40;;;12.60;99.90;;;;;;5015445;28;20218;-75
2022/04/28 07:39:04;;;;;;;18.20;8.55;;;12.80;99.90;;;;;;4996561;28;20246;-74
2022/04/28 07:42:08;;;;;;;17.75;8.75;;;13.00;99.90;;;;;;5013347;28;20260;-75
2022/04/28 07:45:04;;;;;;;16.70;8.07;;;13.00;99.90;;;;;;5010342;28;20281;-75
2022/04/28 07:47:54;;;;;;;13.82;8.25;;;12.80;99.90;;;;;;5016634;28;20233;-76
2022/04/28 07:50:48;;;;;;;17.63;8.07;;;12.90;99.90;;;;;;5025573;28;20226;-74
2022/04/28 07:53:42;;;;;;;18.10;9.00;;;12.70;99.90;;;;;;5010854;28;20604;-75
2022/04/28 07:56:31;;;;;;;13.93;8.10;;;12.70;99.90;;;;;;5024703;28;20316;-76
2022/04/28 07:59:19;;;;;;;14.02;8.10;;;13.00;99.90;;;;;;5001202;28;20888;-74
2022/04/28 08:02:17;;;;;;;17.95;7.75;;;13.20;99.90;;;;;;4998753;28;20217;-75
2022/04/28 08:05:10;;;;;;;17.38;8.18;;;13.50;99.90;;;;;;5013314;28;20225;-75
2022/04/28 08:08:03;;;;;;;14.95;7.90;;;13.60;99.90;;;;;;5019141;28;20233;-75
2022/04/28 08:10:55;;;;;;;15.65;7.78;;;13.80;99.90;;;;;;5011374;28;20651;-76
2022/04/28 08:13:44;;;;;;;17.15;8.30;;;13.80;99.90;;;;;;5014367;28;20233;-74
2022/04/28 08:16:38;;;;;;;15.48;8.18;;;14.90;99.90;;;;;;5009030;28;20299;-75
2022/04/28 08:19:27;;;;;;;11.98;7.95;;;14.60;99.90;;;;;;5011228;28;20226;-75
2022/04/28 08:22:23;;;;;;;17.40;8.65;;;14.40;99.90;;;;;;5008162;28;20812;-75
2022/04/28 08:25:13;;;;;;;18.33;8.10;;;14.60;99.90;;;;;;5013566;28;20435;-74
2022/04/28 08:28:03;;;;;;;16.10;8.95;;;14.80;99.90;;;;;;5005744;28;20728;-76
2022/04/28 08:30:53;;;;;;;14.95;8.57;;;14.30;99.90;;;;;;5008299;28;20222;-75
2022/04/28 08:33:42;;;;;;;15.13;7.93;;;13.90;99.90;;;;;;5000626;28;20261;-74
2022/04/28 08:36:32;;;;;;;14.00;7.95;;;13.80;99.90;;;;;;4998668;28;20238;-75
2022/04/28 08:39:25;;;;;;;13.95;8.25;;;14.10;99.90;;;;;;4999094;28;20225;-76
2022/04/28 08:42:20;;;;;;;13.57;7.95;;;14.30;99.90;;;;;;4998159;28;20229;-74
2022/04/28 08:45:29;;;;;;;14.60;7.00;;;14.10;99.90;;;;;;4995524;28;20381;-75
2022/04/28 08:48:37;;;;;;;14.48;7.35;;;14.60;99.90;;;;;;4997524;28;20234;-75
2022/04/28 08:51:35;;;;;;;18.95;7.75;;;14.40;98.80;;;;;;5002484;28;20476;-74
2022/04/28 08:54:29;;;;;;;13.15;7.45;;;14.30;99.20;;;;;;4995602;28;20218;-74
2022/04/28 08:57:24;;;;;;;16.83;8.20;;;15.80;96.00;;;;;;4992064;28;20690;-74
2022/04/28 09:00:13;;;;;;;15.38;8.18;;;16.40;93.70;;;;;;4998385;28;20219;-75
2022/04/28 09:03:21;;;;;;;18.40;7.65;;;15.90;93.70;;;;;;4988100;28;20261;-75
2022/04/28 09:06:43;;;;;;;17.75;7.60;;;17.40;90.30;;;;;;4998409;28;20303;-75
2022/04/28 09:09:50;;;;;;;12.77;7.93;;;17.90;85.90;;;;;;4996268;28;20670;-76
2022/04/28 09:14:09;;;;;;;11.05;6.72;;;16.90;85.40;;;;;;4994008;28;20214;-75
2022/04/28 09:16:27;;;;;;;10.82;7.15;;;16.80;85.00;;;;;;4995896;28;20245;-75
2022/04/28 09:19:22;;;;;;;11.85;6.72;;;17.70;81.80;;;;;;4994438;28;20222;-75
2022/04/28 09:22:14;;;;;;;16.20;7.15;;;18.70;77.70;;;;;;5001870;28;20714;-76
2022/04/28 09:25:10;;;;;;;12.40;6.40;;;21.20;72.40;;;;;;4993921;28;20230;-76
2022/04/28 09:28:04;;;;;;;12.18;6.45;;;23.20;64.80;;;;;;4986228;28;20234;-75
2022/04/28 09:30:55;;;;;;;8.93;5.82;;;23.20;60.20;;;;;;4998282;28;20347;-76
2022/04/28 09:34:11;;;;;;;21.00;6.57;;;25.30;57.20;;;;;;4984628;28;20218;-76
2022/04/28 09:37:21;;;;;;;13.57;8.02;;;25.00;55.70;;;;;;4999340;28;20306;-76
2022/04/28 09:43:22;;;;;;;23.65;8.55;;;23.80;55.80;;;;;;5000401;28;20222;-77
2022/04/28 09:46:10;;;;;;;13.13;7.07;;;25.50;54.70;;;;;;5011637;28;20268;-75
2022/04/28 09:49:00;;;;;;;13.23;6.93;;;25.40;55.30;;;;;;4993442;28;20222;-76
2022/04/28 09:52:09;;;;;;;21.02;7.97;;;24.90;52.70;;;;;;4993030;28;20309;-76
2022/04/28 09:55:17;;;;;;;13.18;7.60;;;26.30;52.70;;;;;;4995997;28;20230;-75
2022/04/28 09:58:39;;;;;;;14.38;7.50;;;26.40;52.60;;;;;;4996958;28;20234;-76
2022/04/28 10:01:29;;;;;;;10.40;7.05;;;26.20;52.50;;;;;;4995182;28;20231;-76
2022/04/28 10:04:19;;;;;;;10.55;6.53;;;24.20;54.20;;;;;;4976844;28;20235;-76
2022/04/28 10:07:34;;;;;;;9.88;6.88;;;23.40;55.40;;;;;;4996712;28;20221;-81
2022/04/28 10:10:23;;;;;;;9.45;6.43;;;23.10;56.10;;;;;;4994866;28;20656;-76
2022/04/28 10:13:14;;;;;;;7.65;6.13;;;22.20;56.60;;;;;;5004212;28;20233;-76
2022/04/28 10:16:11;;;;;;;10.02;6.45;;;21.40;56.10;;;;;;4998167;28;20720;-76
2022/04/28 10:19:06;;;;;;;9.52;6.97;;;20.20;59.00;;;;;;4996895;28;20226;-76
2022/04/28 10:22:02;;;;;;;7.78;6.70;;;23.10;57.60;;;;;;5000212;28;20227;-75
2022/04/28 10:35:06;;;;;;;7.60;6.20;;;23.20;55.10;;;;;;5007648;28;20723;-77
2022/04/28 10:38:07;;;;;;;9.07;6.10;;;21.80;55.20;;;;;;4995480;28;20222;-77
2022/04/28 12:21:05;;;;;;;9.93;6.30;;;24.10;53.80;;;;;;5076613;28;20235;-77
2022/04/28 12:23:55;;;;;;;7.20;6.50;;;21.00;54.40;;;;;;5078533;28;20781;-76
2022/04/28 12:26:45;;;;;;;9.90;6.97;;;19.40;58.20;;;;;;5078091;28;20269;-75
2022/04/28 12:29:46;;;;;;;16.63;8.40;;;19.10;59.60;;;;;;5068250;28;20235;-76
2022/04/28 12:32:44;;;;;;;13.90;10.02;;;19.30;59.80;;;;;;5070594;28;20231;-77
2022/04/28 12:35:37;;;;;;;8.98;7.43;;;19.20;59.40;;;;;;5074844;28;20281;-75
2022/04/28 12:38:27;;;;;;;14.55;7.53;;;18.40;60.50;;;;;;5068388;28;20215;-76
2022/04/28 12:41:18;;;;;;;12.88;6.60;;;18.20;61.50;;;;;;5070965;28;20220;-77
2022/04/28 12:44:07;;;;;;;10.07;5.78;;;17.70;62.60;;;;;;5077165;28;20220;-76
2022/04/28 12:47:06;;;;;;;7.85;5.85;;;18.40;61.90;;;;;;5075252;28;20228;-76
2022/04/28 12:49:56;;;;;;;9.40;6.30;;;18.30;61.10;;;;;;5084126;28;20544;-76
2022/04/28 12:52:45;;;;;;;11.60;6.18;;;18.00;61.50;;;;;;5078921;28;20776;-75
2022/04/28 12:55:37;;;;;;;7.93;5.60;;;17.80;61.10;;;;;;5075417;28;20234;-75
2022/04/28 12:58:26;;;;;;;7.60;5.72;;;18.00;61.60;;;;;;5077724;28;20222;-76
2022/04/28 13:01:17;;;;;;;8.93;5.10;;;18.00;61.70;;;;;;5072356;28;20311;-75
2022/04/28 13:04:08;;;;;;;10.75;4.85;;;18.30;61.20;;;;;;5075399;28;20220;-76
2022/04/28 13:07:01;;;;;;;9.32;5.68;;;18.60;61.00;;;;;;5082617;28;20340;-75
2022/04/28 13:09:51;;;;;;;8.68;5.30;;;18.50;59.90;;;;;;5072768;28;20223;-75
2022/04/28 13:12:40;;;;;;;10.35;4.93;;;18.10;60.50;;;;;;5067751;28;20301;-78
2022/04/28 13:15:29;;;;;;;8.50;4.68;;;18.00;61.30;;;;;;5074407;28;20270;-77
2022/04/28 13:18:18;;;;;;;12.10;5.40;;;18.00;61.20;;;;;;5076380;28;20220;-75
2022/04/28 13:21:07;;;;;;;7.68;4.88;;;18.00;61.40;;;;;;5068940;28;20793;-75
2022/04/28 13:23:58;;;;;;;6.35;4.70;;;16.60;64.70;;;;;;5066842;28;20224;-79
2022/04/28 15:22:25;;;;;;;6.07;4.38;;;15.30;70.30;;;;;;5034242;28;20598;-76
2022/04/28 15:25:15;;;;;;;7.63;4.30;;;15.00;70.80;;;;;;5058501;28;20718;-76
2022/04/28 15:28:04;;;;;;;7.03;4.45;;;15.10;71.30;;;;;;5054374;28;20220;-76
2022/04/28 15:30:53;;;;;;;5.75;4.40;;;15.20;71.10;;;;;;5044416;28;20223;-77
2022/04/28 15:33:42;;;;;;;6.80;4.70;;;15.10;71.30;;;;;;5075120;28;20223;-76
2022/04/28 15:36:31;;;;;;;7.25;5.07;;;15.00;71.00;;;;;;5066196;28;20776;-75
2022/04/28 15:39:22;;;;;;;8.15;4.57;;;15.10;70.60;;;;;;5077105;28;20230;-76
2022/04/28 15:42:12;;;;;;;9.85;5.43;;;15.10;70.90;;;;;;5063121;28;20243;-74
2022/04/28 15:45:01;;;;;;;9.23;4.50;;;15.10;70.80;;;;;;5076635;28;20230;-74
2022/04/28 15:47:50;;;;;;;5.93;4.93;;;15.10;70.80;;;;;;5079499;28;20230;-74
2022/04/28 15:50:39;;;;;;;6.28;4.55;;;15.10;71.00;;;;;;5071255;28;20223;-75
2022/04/28 15:53:28;;;;;;;7.13;4.60;;;15.10;71.20;;;;;;5080677;28;20279;-75
2022/04/28 15:56:19;;;;;;;6.05;4.15;;;14.90;71.10;;;;;;5079107;28;20728;-74
2022/04/28 15:59:08;;;;;;;6.45;4.45;;;15.00;71.20;;;;;;5084336;28;20223;-74
2022/04/28 16:01:57;;;;;;;6.20;4.20;;;15.00;71.00;;;;;;5078461;28;20236;-75
2022/04/28 16:04:49;;;;;;;7.05;4.60;;;15.10;70.70;;;;;;5084945;28;20223;-75
2022/04/28 16:07:38;;;;;;;7.53;4.43;;;15.00;70.50;;;;;;5092742;28;20226;-75
2022/04/28 16:10:27;;;;;;;6.97;4.70;;;14.90;70.90;;;;;;5077284;28;20222;-75
2022/04/28 16:13:17;;;;;;;5.07;4.20;;;14.80;71.30;;;;;;5076476;28;20339;-75
2022/04/28 16:16:07;;;;;;;5.80;4.32;;;14.80;71.00;;;;;;5073521;28;20215;-73
2022/04/28 16:18:55;;;;;;;5.68;4.30;;;14.90;71.10;;;;;;5079718;28;20646;-74
2022/04/28 16:21:44;;;;;;;6.78;4.75;;;14.90;70.90;;;;;;5093730;28;20637;-73
2022/04/28 16:24:33;;;;;;;6.13;4.40;;;14.90;70.90;;;;;;5062484;28;20223;-73
2022/04/28 16:27:23;;;;;;;7.30;5.03;;;14.90;71.20;;;;;;5090221;28;20222;-73
2022/04/28 16:30:15;;;;;;;5.90;4.50;;;14.90;71.40;;;;;;5081273;28;21125;-74
2022/04/28 16:33:04;;;;;;;10.68;5.03;;;14.80;71.00;;;;;;5075959;28;20216;-74
2022/04/28 16:35:53;;;;;;;8.48;5.00;;;14.70;71.20;;;;;;5066601;28;20276;-74
2022/04/28 16:38:41;;;;;;;8.50;5.65;;;14.60;71.60;;;;;;5064180;28;20318;-74
2022/04/28 16:41:30;;;;;;;6.43;5.10;;;14.60;71.90;;;;;;5064039;28;20235;-74
2022/04/28 16:44:19;;;;;;;9.60;4.80;;;14.50;71.60;;;;;;5064241;28;20224;-74
2022/04/28 16:47:09;;;;;;;7.00;4.70;;;14.50;72.20;;;;;;5062707;28;20215;-75
2022/04/28 16:49:58;;;;;;;7.38;5.07;;;14.40;72.20;;;;;;5063994;28;20261;-74
2022/04/28 16:52:47;;;;;;;7.40;4.90;;;14.40;72.20;;;;;;5062211;28;20228;-74
2022/04/28 16:55:36;;;;;;;7.00;4.72;;;14.40;72.10;;;;;;5062270;28;20685;-74
2022/04/28 16:58:25;;;;;;;6.60;4.82;;;14.40;72.10;;;;;;5050913;28;20224;-73
2022/04/28 17:01:15;;;;;;;7.70;4.85;;;14.40;72.20;;;;;;5050035;28;20227;-74
2022/04/28 17:04:17;;;;;;;7.90;4.68;;;14.40;72.50;;;;;;5064308;28;20231;-73
2022/04/28 17:07:08;;;;;;;6.65;4.80;;;14.20;72.60;;;;;;5065450;28;20276;-76
2022/04/28 17:09:57;;;;;;;5.55;4.70;;;14.30;72.70;;;;;;5052450;28;20204;-77
2022/04/28 17:12:47;;;;;;;9.45;5.18;;;14.20;72.70;;;;;;5054645;28;20220;-77
2022/04/28 17:15:35;;;;;;;6.03;4.72;;;14.20;72.90;;;;;;5054066;28;20235;-76
2022/04/28 17:18:24;;;;;;;8.00;5.28;;;14.00;73.20;;;;;;5053092;28;20212;-77
2022/04/28 17:21:16;;;;;;;10.27;5.90;;;14.10;73.50;;;;;;5039423;28;20229;-76
2022/04/28 17:24:08;;;;;;;10.25;5.50;;;14.20;73.70;;;;;;5038443;28;20300;-78
2022/04/28 17:26:59;;;;;;;7.90;5.28;;;14.00;73.80;;;;;;5043826;28;20277;-78
2022/04/28 17:29:48;;;;;;;8.80;5.28;;;14.00;74.00;;;;;;5047265;28;20988;-78
2022/04/28 17:32:36;;;;;;;6.18;4.53;;;13.90;74.20;;;;;;5071109;28;20712;-77
2022/04/28 17:35:25;;;;;;;7.45;5.28;;;13.90;74.50;;;;;;5063414;28;20239;-76
2022/04/28 17:38:16;;;;;;;7.57;5.57;;;13.90;74.50;;;;;;5069146;28;20750;-77
2022/04/28 17:41:05;;;;;;;7.10;4.57;;;13.80;74.40;;;;;;5071075;28;20245;-77
2022/04/28 17:43:54;;;;;;;7.97;4.88;;;13.90;74.50;;;;;;5061789;28;20212;-77
2022/04/28 17:46:43;;;;;;;7.35;4.90;;;13.80;74.50;;;;;;5068756;28;20219;-77
2022/04/28 17:49:32;;;;;;;9.80;5.22;;;13.80;74.70;;;;;;5063580;28;20307;-77
2022/04/28 17:52:21;;;;;;;7.30;4.82;;;13.80;75.10;;;;;;5060493;28;20232;-77
2022/04/28 18:01:24;;;;;;;7.13;4.90;;;13.70;75.30;;;;;;5074599;28;20256;-76
2022/04/28 18:04:13;;;;;;;8.38;5.00;;;13.70;75.50;;;;;;5079701;28;20223;-77
2022/04/28 18:07:02;;;;;;;7.43;4.47;;;13.60;75.60;;;;;;5046318;28;20666;-77
2022/04/28 18:09:53;;;;;;;7.20;4.95;;;13.60;76.20;;;;;;5057555;28;20232;-77
2022/04/28 18:12:43;;;;;;;6.72;4.68;;;13.60;76.30;;;;;;5064171;28;20231;-77
2022/04/28 18:15:32;;;;;;;7.85;5.15;;;13.60;76.10;;;;;;5063433;28;20221;-76
2022/04/28 18:18:20;;;;;;;8.32;4.60;;;13.60;76.70;;;;;;5080320;28;20550;-77
2022/04/28 18:21:10;;;;;;;7.65;4.72;;;13.60;76.70;;;;;;5066883;28;20228;-77
2022/04/28 18:23:59;;;;;;;5.22;4.30;;;13.60;76.50;;;;;;5065534;28;20223;-77
2022/04/28 18:26:48;;;;;;;9.00;5.05;;;13.60;76.40;;;;;;5076016;28;20212;-77
2022/04/28 18:29:44;;;;;;;8.65;5.28;;;13.70;76.70;;;;;;5083249;28;20216;-78
2022/04/28 18:32:32;;;;;;;7.97;4.65;;;13.60;76.70;;;;;;5080269;28;20570;-77
2022/04/28 18:44:26;;;;;;;6.93;4.70;;;13.60;77.00;;;;;;5063623;28;20240;-77
2022/04/28 18:44:45;;;;;;;8.68;4.97;;;13.40;78.10;;;;;;5090398;28;21677;-79
2022/04/28 18:47:37;;;;;;;8.48;4.93;;;13.40;78.20;;;;;;5074743;28;20217;-82
2022/04/28 18:50:26;;;;;;;7.55;5.15;;;13.40;78.20;;;;;;5070698;28;20247;-80
2022/04/28 18:53:15;;;;;;;10.73;5.05;;;13.50;78.30;;;;;;5061903;28;20892;-77
2022/04/28 18:56:05;;;;;;;12.52;5.22;;;13.50;78.60;;;;;;5063358;28;20212;-77
2022/04/28 18:58:53;;;;;;;9.43;5.13;;;13.50;78.60;;;;;;5076485;28;20228;-81
2022/04/28 19:01:45;;;;;;;8.88;5.18;;;13.40;78.80;;;;;;5061838;28;20729;-77
2022/04/28 19:04:35;;;;;;;8.70;5.15;;;13.40;79.20;;;;;;5067538;28;20223;-78
2022/04/28 19:07:24;;;;;;;11.38;5.47;;;13.40;78.90;;;;;;5068749;28;20231;-81
2022/04/28 19:10:13;;;;;;;11.68;5.43;;;13.40;79.20;;;;;;5061760;28;20227;-77
2022/04/28 19:13:02;;;;;;;8.85;5.28;;;13.50;79.40;;;;;;5063778;28;20306;-79
2022/04/28 19:15:51;;;;;;;7.88;5.20;;;13.40;79.40;;;;;;5066943;28;20283;-76
2022/04/28 19:18:41;;;;;;;8.85;5.32;;;13.40;79.70;;;;;;5082897;28;20688;-76
2022/04/28 19:21:30;;;;;;;11.75;5.60;;;13.30;79.90;;;;;;5069717;28;20220;-77
2022/04/28 19:24:19;;;;;;;12.43;5.70;;;13.40;80.00;;;;;;5076371;28;20224;-78
2022/04/28 19:27:08;;;;;;;9.32;5.63;;;13.30;80.00;;;;;;5065824;28;20223;-76
2022/04/28 19:29:57;;;;;;;11.30;5.85;;;13.30;80.30;;;;;;5065064;28;20234;-78
2022/04/28 19:32:46;;;;;;;9.70;5.47;;;13.30;80.50;;;;;;5071011;28;20243;-78
2022/04/28 19:35:38;;;;;;;10.55;5.30;;;13.30;80.70;;;;;;5068537;28;20232;-76
2022/04/28 19:38:27;;;;;;;11.45;6.38;;;13.20;80.80;;;;;;5069830;28;20226;-80
2022/04/28 19:41:15;;;;;;;9.70;5.78;;;13.30;80.90;;;;;;5062820;28;20223;-77
2022/04/28 19:44:05;;;;;;;10.32;6.00;;;13.30;80.80;;;;;;5052671;28;20228;-77
2022/04/28 19:46:54;;;;;;;12.18;6.20;;;13.20;81.10;;;;;;5060595;28;20288;-79
2022/04/28 19:49:44;;;;;;;10.25;6.00;;;13.20;81.10;;;;;;5067408;28;20228;-76
2022/04/28 19:52:36;;;;;;;11.75;6.03;;;13.10;81.60;;;;;;5062227;28;20276;-77
2022/04/28 19:55:24;;;;;;;9.85;6.25;;;13.00;81.70;;;;;;5063616;28;20239;-78
2022/04/28 19:58:14;;;;;;;11.70;6.78;;;13.00;81.90;;;;;;5060598;28;20254;-76
2022/04/28 20:01:03;;;;;;;13.57;6.20;;;13.00;82.10;;;;;;5064225;28;20210;-77
2022/04/28 20:03:54;;;;;;;14.95;6.95;;;13.00;82.50;;;;;;5062299;28;20243;-76
2022/04/28 20:06:45;;;;;;;14.00;7.28;;;13.10;82.80;;;;;;5073389;28;20220;-77
2022/04/28 20:09:36;;;;;;;19.88;9.45;;;13.00;83.60;;;;;;5080804;28;20613;-77
2022/04/28 20:12:25;;;;;;;9.52;5.82;;;13.10;83.60;;;;;;5066799;28;20221;-77
2022/04/28 20:15:14;;;;;;;9.20;6.30;;;13.00;83.50;;;;;;5067147;28;20302;-77
2022/04/28 20:18:03;;;;;;;11.65;6.80;;;13.10;83.90;;;;;;5065966;28;20705;-77
2022/04/28 20:20:52;;;;;;;13.73;6.65;;;13.10;83.60;;;;;;5067400;28;20228;-76